createdAt,value
2019-02-23T00:01:08.840Z,12.20
2019-02-23T00:03:38.138Z,12.80
2019-02-23T00:06:07.435Z,12.73
2019-02-23T00:08:37.074Z,11.73
2019-02-23T00:11:06.382Z,12.10
2019-02-23T00:13:36.099Z,11.17
2019-02-23T00:16:05.711Z,11.37
2019-02-23T00:18:35.494Z,11.90
2019-02-23T00:21:05.078Z,11.40
2019-02-23T00:23:34.777Z,10.63
2019-02-23T00:26:04.135Z,11.60
2019-02-23T00:28:33.424Z,11.43
2019-02-23T00:31:02.724Z,10.13
2019-02-23T00:33:32.310Z,10.93
2019-02-23T00:36:01.714Z,10.17
2019-02-23T00:38:31.720Z,9.73
2019-02-23T00:41:01.027Z,9.67
2019-02-23T00:43:30.338Z,9.70
2019-02-23T00:45:59.921Z,10.80
2019-02-23T00:48:29.271Z,10.23
2019-02-23T00:50:58.567Z,10.43
2019-02-23T00:53:28.731Z,10.20
2019-02-23T00:55:58.043Z,10.00
2019-02-23T00:58:27.689Z,10.30
2019-02-23T01:00:57.244Z,9.87
2019-02-23T01:03:26.581Z,9.80
2019-02-23T01:05:55.871Z,9.67
2019-02-23T01:08:25.164Z,9.63
2019-02-23T01:10:58.253Z,10.33
2019-02-23T01:13:25.855Z,10.13
2019-02-23T01:15:55.457Z,10.60
2019-02-23T01:18:25.068Z,9.70
2019-02-23T01:20:54.355Z,10.23
2019-02-23T01:23:23.924Z,9.73
2019-02-23T01:25:53.306Z,10.53
2019-02-23T01:28:22.592Z,9.93
2019-02-23T01:30:52.007Z,10.70
2019-02-23T01:33:21.573Z,10.87
2019-02-23T01:35:50.868Z,11.17
2019-02-23T01:38:20.236Z,10.57
2019-02-23T01:40:49.809Z,11.00
2019-02-23T01:43:19.127Z,10.87
2019-02-23T01:45:48.653Z,11.70
2019-02-23T01:48:18.261Z,11.27
2019-02-23T01:50:47.554Z,10.90
2019-02-23T01:53:17.433Z,11.57
2019-02-23T01:55:46.796Z,12.43
2019-02-23T01:58:16.330Z,12.00
2019-02-23T02:00:45.895Z,12.43
2019-02-23T02:03:15.195Z,11.87
2019-02-23T02:05:44.489Z,11.97
2019-02-23T02:08:13.889Z,11.57
2019-02-23T02:10:43.287Z,11.97
2019-02-23T02:13:12.630Z,12.10
2019-02-23T02:15:42.471Z,12.20
2019-02-23T02:18:11.806Z,13.10
2019-02-23T02:20:41.135Z,13.40
2019-02-23T02:23:10.491Z,12.90
2019-02-23T02:25:39.771Z,13.67
2019-02-23T02:28:09.414Z,13.00
2019-02-23T02:30:39.347Z,12.77
2019-02-23T02:33:08.922Z,12.80
2019-02-23T02:35:38.585Z,13.40
2019-02-23T02:38:07.907Z,13.17
2019-02-23T02:40:37.467Z,12.80
2019-02-23T02:43:06.849Z,13.50
2019-02-23T02:45:36.432Z,14.57
2019-02-23T02:48:05.982Z,12.87
2019-02-23T02:50:35.300Z,14.03
2019-02-23T02:53:04.877Z,13.47
2019-02-23T02:55:34.496Z,14.10
2019-02-23T02:58:04.109Z,14.23
2019-02-23T03:00:33.643Z,14.10
2019-02-23T03:03:02.936Z,13.57
2019-02-23T03:05:32.698Z,14.27
2019-02-23T03:08:01.978Z,14.57
2019-02-23T03:10:31.598Z,13.17
2019-02-23T03:13:01.000Z,14.30
2019-02-23T03:15:30.306Z,14.40
2019-02-23T03:17:59.891Z,14.83
2019-02-23T03:20:36.624Z,14.03
2019-02-23T03:23:00.751Z,14.83
2019-02-23T03:25:30.329Z,14.50
2019-02-23T03:27:59.670Z,13.83
2019-02-23T03:30:29.037Z,14.60
2019-02-23T03:32:58.348Z,14.20
2019-02-23T03:35:27.988Z,15.13
2019-02-23T03:37:57.291Z,15.30
2019-02-23T03:40:26.638Z,15.87
2019-02-23T03:42:55.963Z,15.07
2019-02-23T03:45:25.251Z,14.97
2019-02-23T03:47:54.806Z,14.70
2019-02-23T03:50:24.403Z,14.73
2019-02-23T03:52:54.292Z,15.17
2019-02-23T03:55:23.588Z,14.40
2019-02-23T03:57:52.913Z,13.87
2019-02-23T04:00:22.550Z,14.30
2019-02-23T04:02:52.134Z,14.30
2019-02-23T04:05:21.475Z,14.77
2019-02-23T04:07:50.772Z,14.63
2019-02-23T04:10:20.140Z,14.50
2019-02-23T04:12:49.528Z,14.37
2019-02-23T04:15:18.833Z,15.83
2019-02-23T04:17:48.488Z,15.63
2019-02-23T04:20:17.842Z,14.90
2019-02-23T04:22:47.411Z,15.63
2019-02-23T04:25:16.971Z,14.83
2019-02-23T04:27:46.319Z,14.07
2019-02-23T04:30:15.683Z,14.30
2019-02-23T04:32:45.254Z,14.90
2019-02-23T04:35:14.845Z,13.90
2019-02-23T04:37:44.497Z,16.47
2019-02-23T04:40:14.078Z,13.77
2019-02-23T04:42:43.646Z,15.17
2019-02-23T04:45:12.955Z,14.50
2019-02-23T04:47:42.240Z,14.80
2019-02-23T04:50:11.666Z,14.77
2019-02-23T04:52:41.013Z,15.67
2019-02-23T04:55:10.576Z,15.73
2019-02-23T04:57:39.928Z,15.17
2019-02-23T05:00:10.611Z,15.10
2019-02-23T05:02:39.897Z,15.10
2019-02-23T05:05:10.045Z,15.90
2019-02-23T05:07:39.332Z,15.60
2019-02-23T05:10:09.133Z,15.73
2019-02-23T05:12:38.771Z,15.10
2019-02-23T05:15:08.951Z,14.33
2019-02-23T05:17:38.279Z,15.63
2019-02-23T05:20:07.916Z,15.43
2019-02-23T05:22:37.530Z,15.03
2019-02-23T05:25:06.907Z,14.70
2019-02-23T05:27:36.485Z,14.83
2019-02-23T05:30:06.265Z,15.10
2019-02-23T05:32:36.019Z,14.17
2019-02-23T05:35:05.590Z,15.53
2019-02-23T05:37:34.900Z,14.67
2019-02-23T05:40:04.379Z,13.77
2019-02-23T05:42:33.928Z,13.77
2019-02-23T05:45:03.475Z,14.10
2019-02-23T05:47:33.064Z,15.43
2019-02-23T05:50:02.359Z,15.40
2019-02-23T05:52:31.667Z,14.63
2019-02-23T05:55:00.986Z,14.10
2019-02-23T05:57:30.359Z,13.73
2019-02-23T05:59:59.961Z,14.40
2019-02-23T06:02:29.523Z,14.27
2019-02-23T06:04:59.584Z,14.50
2019-02-23T06:07:28.943Z,14.53
2019-02-23T06:09:58.238Z,14.20
2019-02-23T06:12:27.577Z,14.33
2019-02-23T06:14:57.020Z,14.07
2019-02-23T06:17:26.571Z,13.93
2019-02-23T06:19:55.934Z,14.30
2019-02-23T06:22:25.275Z,14.50
2019-02-23T06:24:54.579Z,14.23
2019-02-23T06:27:24.239Z,15.80
2019-02-23T06:29:53.916Z,14.90
2019-02-23T06:32:23.552Z,14.47
2019-02-23T06:34:53.123Z,14.53
2019-02-23T06:37:23.125Z,13.43
2019-02-23T06:39:52.701Z,13.73
2019-02-23T06:42:22.255Z,14.10
2019-02-23T06:44:51.572Z,15.20
2019-02-23T06:47:21.012Z,14.40
2019-02-23T06:49:50.380Z,13.07
2019-02-23T06:52:19.773Z,14.00
2019-02-23T06:54:49.468Z,14.23
2019-02-23T06:57:18.740Z,14.53
2019-02-23T06:59:48.068Z,13.73
2019-02-23T07:02:17.404Z,13.70
2019-02-23T07:04:46.861Z,13.93
2019-02-23T07:07:16.266Z,14.17
2019-02-23T07:09:45.693Z,13.47
2019-02-23T07:12:15.103Z,15.57
2019-02-23T07:14:44.520Z,13.63
2019-02-23T07:17:15.239Z,13.43
2019-02-23T07:19:44.815Z,13.53
2019-02-23T07:22:15.739Z,13.90
2019-02-23T07:24:45.355Z,14.00
2019-02-23T07:27:14.630Z,12.87
2019-02-23T07:29:43.916Z,14.20
2019-02-23T07:32:13.266Z,14.23
2019-02-23T07:34:42.623Z,12.77
2019-02-23T07:37:11.919Z,12.97
2019-02-23T07:39:41.234Z,13.40
2019-02-23T07:42:10.535Z,13.77
2019-02-23T07:44:39.903Z,13.07
2019-02-23T07:47:09.215Z,12.93
2019-02-23T07:49:38.819Z,12.30
2019-02-23T07:52:08.099Z,12.67
2019-02-23T07:54:37.432Z,13.37
2019-02-23T07:57:06.797Z,15.13
2019-02-23T07:59:36.368Z,15.47
2019-02-23T08:02:05.939Z,12.37
2019-02-23T08:04:35.538Z,13.47
2019-02-23T08:07:04.907Z,13.97
2019-02-23T08:09:34.240Z,13.83
2019-02-23T08:12:03.524Z,12.90
2019-02-23T08:14:32.844Z,13.87
2019-02-23T08:17:02.182Z,12.50
2019-02-23T08:19:31.791Z,13.53
2019-02-23T08:22:01.367Z,13.47
2019-02-23T08:24:30.947Z,13.37
2019-02-23T08:27:00.244Z,13.90
2019-02-23T08:29:29.522Z,13.93
2019-02-23T08:31:58.840Z,14.27
2019-02-23T08:34:28.126Z,13.83
2019-02-23T08:36:57.412Z,13.93
2019-02-23T08:39:26.762Z,14.00
2019-02-23T08:41:56.290Z,14.13
2019-02-23T08:44:25.575Z,14.97
2019-02-23T08:46:54.889Z,17.30
2019-02-23T08:49:24.194Z,13.80
2019-02-23T08:51:53.535Z,13.77
2019-02-23T08:54:22.926Z,13.87
2019-02-23T08:56:52.528Z,14.10
2019-02-23T08:59:22.243Z,13.83
2019-02-23T09:01:51.863Z,13.93
2019-02-23T09:04:22.366Z,14.37
2019-02-23T09:06:51.676Z,13.70
2019-02-23T09:09:21.307Z,14.73
2019-02-23T09:11:50.695Z,15.33
2019-02-23T09:14:19.980Z,13.57
2019-02-23T09:16:49.352Z,14.50
2019-02-23T09:19:18.616Z,14.03
2019-02-23T09:21:47.959Z,13.30
2019-02-23T09:24:18.068Z,13.87
2019-02-23T09:26:47.391Z,14.97
2019-02-23T09:29:17.048Z,13.30
2019-02-23T09:31:46.529Z,13.60
2019-02-23T09:34:16.072Z,12.63
2019-02-23T09:36:46.309Z,13.53
2019-02-23T09:39:15.992Z,13.20
2019-02-23T09:41:45.449Z,12.67
2019-02-23T09:44:15.041Z,13.10
2019-02-23T09:46:44.654Z,13.70
2019-02-23T09:49:13.972Z,12.43
2019-02-23T09:51:43.582Z,13.77
2019-02-23T09:54:13.437Z,12.80
2019-02-23T09:56:42.731Z,13.97
2019-02-23T09:59:12.414Z,12.00
2019-02-23T10:01:47.845Z,11.70
2019-02-23T10:04:17.399Z,12.57
2019-02-23T10:06:46.991Z,12.00
2019-02-23T10:09:16.432Z,12.27
2019-02-23T10:11:45.784Z,12.67
2019-02-23T10:14:15.171Z,11.87
2019-02-23T10:16:44.540Z,12.10
2019-02-23T10:19:15.956Z,11.10
2019-02-23T10:21:45.831Z,12.73
2019-02-23T10:24:15.523Z,11.33
2019-02-23T10:26:44.799Z,11.60
2019-02-23T10:29:16.663Z,12.53
2019-02-23T10:31:46.005Z,11.57
2019-02-23T10:34:15.608Z,12.13
2019-02-23T10:36:45.172Z,12.20
2019-02-23T10:39:15.733Z,11.00
2019-02-23T10:41:46.740Z,12.10
2019-02-23T10:44:16.325Z,11.77
2019-02-23T10:46:46.392Z,11.17
2019-02-23T10:49:15.789Z,10.87
2019-02-23T10:51:45.271Z,10.80
2019-02-23T10:54:14.904Z,10.80
2019-02-23T10:56:44.547Z,11.03
2019-02-23T10:59:13.853Z,10.97
2019-02-23T11:01:46.831Z,11.00
2019-02-23T11:04:16.450Z,10.90
2019-02-23T11:06:46.082Z,10.97
2019-02-23T11:09:21.734Z,10.70
2019-02-23T11:11:51.025Z,10.80
2019-02-23T11:14:20.593Z,10.07
2019-02-23T11:16:50.219Z,11.93
2019-02-23T11:19:19.678Z,11.20
2019-02-23T11:21:49.891Z,10.93
2019-02-23T11:24:21.564Z,10.23
2019-02-23T11:26:51.158Z,11.03
2019-02-23T11:29:20.716Z,10.50
2019-02-23T11:31:50.039Z,10.70
2019-02-23T11:34:19.614Z,10.10
2019-02-23T11:36:49.248Z,9.70
2019-02-23T11:39:18.572Z,9.20
2019-02-23T11:41:47.851Z,8.90
2019-02-23T11:44:17.146Z,9.60
2019-02-23T11:46:59.897Z,7.80
2019-02-23T11:49:18.563Z,8.67
2019-02-23T11:51:48.435Z,8.63
2019-02-23T11:54:18.123Z,10.23
2019-02-23T11:56:47.695Z,9.30
2019-02-23T11:59:16.995Z,9.43
2019-02-23T12:01:46.568Z,9.80
2019-02-23T12:04:15.854Z,9.40
2019-02-23T12:06:45.175Z,8.90
2019-02-23T12:09:14.767Z,8.20
2019-02-23T12:11:44.314Z,8.07
2019-02-23T12:14:13.612Z,9.17
2019-02-23T12:16:43.190Z,8.80
2019-02-23T12:19:12.743Z,7.87
2019-02-23T12:21:42.063Z,12.50
2019-02-23T12:24:11.517Z,8.73
2019-02-23T12:26:41.101Z,9.13
2019-02-23T12:29:10.383Z,9.07
2019-02-23T12:31:40.007Z,8.83
2019-02-23T12:34:09.371Z,9.47
2019-02-23T12:36:38.671Z,9.20
2019-02-23T12:39:08.007Z,8.87
2019-02-23T12:41:37.583Z,8.37
2019-02-23T12:44:06.907Z,9.70
2019-02-23T12:46:36.504Z,8.30
2019-02-23T12:49:06.073Z,8.07
2019-02-23T12:51:35.444Z,7.20
2019-02-23T12:54:05.126Z,7.70
2019-02-23T12:56:45.198Z,7.73
2019-02-23T12:59:26.003Z,7.87
2019-02-23T13:01:55.460Z,6.77
2019-02-23T13:04:24.771Z,6.47
2019-02-23T13:06:54.083Z,6.27
2019-02-23T13:09:28.739Z,7.10
2019-02-23T13:12:08.450Z,6.60
2019-02-23T13:15:08.145Z,6.90
2019-02-23T13:18:23.300Z,6.77
2019-02-23T13:21:26.330Z,6.60
2019-02-23T13:24:45.866Z,6.30
2019-02-23T13:27:45.190Z,6.70
2019-02-23T13:30:48.294Z,6.20
2019-02-23T13:33:37.270Z,7.47
2019-02-23T13:36:24.595Z,5.90
2019-02-23T13:39:13.112Z,6.90
2019-02-23T13:42:19.283Z,6.53
2019-02-23T13:45:12.045Z,5.87
2019-02-23T13:48:14.380Z,5.57
2019-02-23T13:50:54.757Z,6.70
2019-02-23T13:54:38.349Z,6.77
2019-02-23T13:57:27.029Z,6.50
2019-02-23T14:00:28.861Z,6.73
2019-02-23T14:03:36.641Z,6.90
2019-02-23T14:06:29.251Z,6.53
2019-02-23T14:09:47.503Z,6.23
2019-02-23T14:13:04.309Z,8.93
2019-02-23T14:16:09.356Z,6.90
2019-02-23T14:19:00.964Z,7.13
2019-02-23T14:22:01.145Z,5.40
2019-02-23T14:24:58.875Z,5.40
2019-02-23T14:28:00.035Z,5.87
2019-02-23T14:30:57.287Z,7.43
2019-02-23T14:34:08.758Z,6.27
2019-02-23T14:37:10.304Z,7.17
2019-02-23T14:40:07.558Z,6.70
2019-02-23T14:43:41.124Z,8.00
2019-02-23T14:47:08.929Z,6.73
2019-02-23T14:50:31.082Z,6.67
2019-02-23T14:54:05.312Z,6.00
2019-02-23T14:57:16.127Z,7.17
2019-02-23T15:00:08.367Z,6.50
2019-02-23T15:03:10.064Z,6.07
2019-02-23T15:06:07.777Z,6.20
2019-02-23T15:08:46.050Z,6.43
2019-02-23T15:11:47.119Z,6.63
2019-02-23T15:14:52.300Z,6.57
2019-02-23T15:17:58.359Z,6.73
2019-02-23T15:21:02.111Z,6.20
2019-02-23T15:23:44.043Z,6.80
2019-02-23T15:26:38.703Z,6.43
2019-02-23T15:29:32.345Z,6.80
2019-02-23T15:32:52.092Z,7.47
2019-02-23T15:35:58.541Z,7.27
2019-02-23T15:38:53.074Z,7.30
2019-02-23T15:42:04.642Z,7.37
2019-02-23T15:45:27.122Z,7.43
2019-02-23T15:48:29.251Z,7.33
2019-02-23T15:51:00.017Z,8.63
2019-02-23T15:53:29.655Z,7.40
2019-02-23T15:55:58.953Z,13.13
2019-02-23T15:58:28.278Z,7.27
2019-02-23T16:00:57.678Z,7.33
2019-02-23T16:03:27.055Z,7.20
2019-02-23T16:05:56.679Z,6.77
2019-02-23T16:08:25.971Z,7.43
2019-02-23T16:10:55.620Z,6.90
2019-02-23T16:13:24.937Z,7.20
2019-02-23T16:15:54.209Z,7.57
2019-02-23T16:18:23.495Z,7.63
2019-02-23T16:20:52.832Z,7.03
2019-02-23T16:23:34.701Z,7.80
2019-02-23T16:25:53.629Z,7.80
2019-02-23T16:28:22.943Z,7.40
2019-02-23T16:30:52.507Z,7.07
2019-02-23T16:33:22.131Z,7.60
2019-02-23T16:35:51.721Z,7.63
2019-02-23T16:38:21.044Z,8.03
2019-02-23T16:40:50.509Z,7.70
2019-02-23T16:43:20.244Z,7.60
2019-02-23T16:45:49.887Z,7.37
2019-02-23T16:48:19.295Z,7.73
2019-02-23T16:50:48.679Z,7.73
2019-02-23T16:53:18.257Z,7.30
2019-02-23T16:55:50.896Z,7.90
2019-02-23T16:58:19.222Z,7.30
2019-02-23T17:00:48.876Z,7.50
2019-02-23T17:03:18.450Z,8.17
2019-02-23T17:05:48.207Z,7.23
2019-02-23T17:08:17.494Z,8.40
2019-02-23T17:10:46.792Z,7.07
2019-02-23T17:13:16.485Z,7.23
2019-02-23T17:15:46.048Z,8.07
2019-02-23T17:18:15.379Z,7.97
2019-02-23T17:20:45.019Z,7.90
2019-02-23T17:23:14.567Z,8.33
2019-02-23T17:25:43.861Z,7.73
2019-02-23T17:28:44.489Z,8.10
2019-02-23T17:31:27.423Z,8.60
2019-02-23T17:34:50.375Z,9.87
2019-02-23T17:38:16.327Z,10.87
2019-02-23T17:40:44.642Z,10.87
2019-02-23T17:43:14.168Z,9.57
2019-02-23T17:45:43.496Z,8.40
2019-02-23T17:48:12.810Z,9.60
2019-02-23T17:50:42.496Z,9.23
2019-02-23T17:53:19.707Z,9.17
2019-02-23T17:55:49.405Z,9.30
2019-02-23T17:58:18.950Z,9.43
2019-02-23T18:00:48.292Z,9.80
2019-02-23T18:03:17.570Z,9.27
2019-02-23T18:05:47.204Z,9.73
2019-02-23T18:08:16.798Z,9.27
2019-02-23T18:10:49.787Z,9.17
2019-02-23T18:13:19.175Z,14.37
2019-02-23T18:15:48.791Z,12.77
2019-02-23T18:18:18.338Z,9.57
2019-02-23T18:20:48.301Z,10.63
2019-02-23T18:23:26.298Z,9.20
2019-02-23T18:26:02.153Z,11.03
2019-02-23T18:28:31.609Z,10.17
2019-02-23T18:31:01.144Z,10.30
2019-02-23T18:33:30.675Z,10.43
2019-02-23T18:38:35.564Z,9.60
2019-02-23T18:41:04.862Z,9.77
2019-02-23T18:43:34.511Z,11.20
2019-02-23T18:46:03.879Z,11.07
2019-02-23T18:48:33.186Z,10.40
2019-02-23T18:51:02.489Z,10.53
2019-02-23T18:53:32.046Z,11.37
2019-02-23T18:56:01.347Z,10.90
2019-02-23T18:58:30.656Z,10.37
2019-02-23T19:01:00.183Z,10.30
2019-02-23T19:03:29.740Z,10.27
2019-02-23T19:05:59.328Z,10.30
2019-02-23T19:08:28.605Z,10.50
2019-02-23T19:10:58.201Z,12.17
2019-02-23T19:13:27.512Z,10.83
2019-02-23T19:15:57.069Z,11.37
2019-02-23T19:18:26.620Z,12.90
2019-02-23T19:20:56.145Z,10.93
2019-02-23T19:23:25.691Z,10.93
2019-02-23T19:25:54.987Z,11.13
2019-02-23T19:28:25.229Z,11.50
2019-02-23T19:30:54.598Z,10.93
2019-02-23T19:33:23.889Z,10.47
2019-02-23T19:35:59.251Z,10.57
2019-02-23T19:38:28.639Z,10.67
2019-02-23T19:40:57.934Z,10.63
2019-02-23T19:43:27.238Z,10.83
2019-02-23T19:45:56.772Z,10.93
2019-02-23T19:48:26.380Z,11.13
2019-02-23T19:50:59.509Z,10.53
2019-02-23T19:53:28.796Z,10.53
2019-02-23T19:55:58.147Z,11.20
2019-02-23T19:58:27.504Z,11.47
2019-02-23T20:00:56.799Z,10.90
2019-02-23T20:03:26.446Z,10.80
2019-02-23T20:05:56.027Z,10.27
2019-02-23T20:08:25.664Z,10.67
2019-02-23T20:10:54.975Z,12.60
2019-02-23T20:13:24.375Z,11.20
2019-02-23T20:15:54.288Z,11.13
2019-02-23T20:18:23.563Z,11.10
2019-02-23T20:20:53.133Z,11.40
2019-02-23T20:23:22.430Z,10.77
2019-02-23T20:25:51.993Z,11.20
2019-02-23T20:28:21.323Z,11.00
2019-02-23T20:30:50.621Z,10.67
2019-02-23T20:33:20.252Z,10.80
2019-02-23T20:35:49.582Z,11.00
2019-02-23T20:38:19.019Z,10.63
2019-02-23T20:40:48.579Z,10.97
2019-02-23T20:43:18.198Z,10.83
2019-02-23T20:45:47.494Z,11.40
2019-02-23T20:48:17.420Z,11.70
2019-02-23T20:50:46.998Z,10.57
2019-02-23T20:53:16.401Z,11.87
2019-02-23T20:55:46.583Z,12.90
2019-02-23T20:58:15.908Z,10.63
2019-02-23T21:00:45.347Z,10.80
2019-02-23T21:03:14.618Z,10.97
2019-02-23T21:05:44.018Z,11.53
2019-02-23T21:08:13.651Z,11.30
2019-02-23T21:10:43.096Z,11.57
2019-02-23T21:13:12.690Z,11.03
2019-02-23T21:15:42.130Z,11.13
2019-02-23T21:18:11.490Z,11.60
2019-02-23T21:20:40.800Z,11.60
2019-02-23T21:23:10.347Z,10.73
2019-02-23T21:25:39.743Z,10.33
2019-02-23T21:28:09.338Z,10.90
2019-02-23T21:30:39.135Z,11.17
2019-02-23T21:33:08.671Z,10.77
2019-02-23T21:35:38.135Z,10.57
2019-02-23T21:38:07.506Z,10.57
2019-02-23T21:40:37.073Z,10.67
2019-02-23T21:43:06.388Z,11.17
2019-02-23T21:45:35.689Z,11.23
2019-02-23T21:48:05.263Z,11.37
2019-02-23T21:50:34.887Z,10.20
2019-02-23T21:53:04.943Z,10.77
2019-02-23T21:55:34.723Z,10.03
2019-02-23T21:58:04.032Z,11.50
2019-02-23T22:00:33.494Z,10.70
2019-02-23T22:03:02.786Z,10.43
2019-02-23T22:05:32.160Z,11.13
2019-02-23T22:08:02.384Z,10.83
2019-02-23T22:10:31.939Z,10.63
2019-02-23T22:13:01.575Z,10.63
2019-02-23T22:15:30.981Z,10.40
2019-02-23T22:18:00.260Z,10.17
2019-02-23T22:20:29.836Z,10.50
2019-02-23T22:22:59.132Z,9.87
2019-02-23T22:25:28.831Z,9.27
2019-02-23T22:27:58.440Z,10.10
2019-02-23T22:30:28.021Z,10.83
2019-02-23T22:32:57.645Z,10.10
2019-02-23T22:35:26.937Z,9.87
2019-02-23T22:37:56.313Z,9.97
2019-02-23T22:40:25.811Z,10.23
2019-02-23T22:42:55.473Z,9.07
2019-02-23T22:45:25.064Z,9.73
2019-02-23T22:47:54.932Z,10.63
2019-02-23T22:50:24.268Z,10.37
2019-02-23T22:52:53.886Z,9.80
2019-02-23T22:55:23.472Z,10.17
2019-02-23T22:57:52.778Z,10.03
2019-02-23T23:00:26.034Z,10.83
2019-02-23T23:02:55.361Z,9.97
2019-02-23T23:05:24.963Z,9.57
2019-02-23T23:07:55.392Z,9.87
2019-02-23T23:10:25.076Z,11.23
2019-02-23T23:12:54.651Z,10.80
2019-02-23T23:15:23.984Z,11.57
2019-02-23T23:17:54.104Z,10.17
2019-02-23T23:20:23.407Z,9.53
2019-02-23T23:22:52.723Z,10.73
2019-02-23T23:25:22.039Z,9.33
2019-02-23T23:27:51.595Z,9.60
2019-02-23T23:30:20.935Z,9.53
2019-02-23T23:32:50.691Z,10.57
2019-02-23T23:35:19.976Z,9.57
2019-02-23T23:37:49.278Z,9.13
2019-02-23T23:40:18.848Z,9.53
2019-02-23T23:42:48.143Z,11.07
2019-02-23T23:45:17.518Z,10.03
2019-02-23T23:47:46.814Z,8.90
2019-02-23T23:50:16.198Z,9.73
2019-02-23T23:52:45.518Z,8.87
2019-02-23T23:55:15.055Z,9.27
2019-02-23T23:57:44.422Z,8.93
